Pacific Dove — WDD6365 — position and weather

sailwx.info

Track history (hours):
 
Tides and Currents Weather Stations Pressure Air Temp Water Temp Dewpoint Dewpoint Depression Visibility Wind Speed Wind Dir Waves Ship Positions

Pacific Dove

Owner: Pacific Dove Seafoods Inc., Grayland, WA. More information available from US FCC via Universal Licensing System and Coast Guard Vessel Documentation Center.

Last reported at 2018-Feb-18 06:25 UTC. Time now 2018-Feb-18 06:57 UTC.
Position N 46°55' W 124°07'.

Length 24 m.

Type: Fishing. MMSI: 367171980.

Date/timePositionNaut miles runAvg speedWind from/ knotsBaromVisibWave heightAir tempDewpointWater temp
2018-Feb-18 06:25N 46°55' W 124°07'0 0.1
2018-Feb-18 05:51N 46°55' W 124°07'0 0.0
2018-Feb-18 02:14N 46°55' W 124°07'0 0.0
2018-Feb-18 02:00N 46°55' W 124°07'0 0.0
2018-Feb-18 00:59N 46°55' W 124°07'0 0.0
2018-Feb-18 00:11N 46°55' W 124°07'0 0.0
2018-Feb-17 23:48N 46°55' W 124°07'0 0.0
2018-Feb-17 22:50N 46°55' W 124°07'0 0.1
2018-Feb-17 22:11N 46°55' W 124°07'0 0.0
2018-Feb-17 21:47N 46°55' W 124°07'0 0.0
2018-Feb-17 21:25N 46°55' W 124°07'0 0.0
2018-Feb-17 17:11N 46°55' W 124°07'0 0.0
2018-Feb-17 16:29N 46°55' W 124°07'0 0.0
2018-Feb-17 07:38N 46°55' W 124°07'1 3.8
2018-Feb-17 07:29N 46°55' W 124°07'4 9.1
2018-Feb-17 07:00N 46°55' W 124°13'3 6.2
2018-Feb-17 06:31N 46°57' W 124°17'3 6.8
2018-Feb-17 06:01N 46°60' W 124°19'3 0.1
2018-Feb-15 20:11N 46°59' W 124°15'1 6.5
2018-Feb-15 20:00N 46°58' W 124°14'3 6.5
2018-Feb-15 19:30N 46°55' W 124°12'4 0.1
2018-Feb-14 08:17N 46°55' W 124°07'1 4.5
2018-Feb-14 08:00N 46°55' W 124°08'4 7.9
2018-Feb-14 07:30N 46°55' W 124°14'4 7.3
2018-Feb-14 07:00N 46°57' W 124°18'  
2018-Feb-11 21:15N 47°00' W 124°18'2 8.1
2018-Feb-11 21:00N 46°59' W 124°16'6 8.3
2018-Feb-11 20:19N 46°55' W 124°10'2 0.1
2018-Feb-10 17:55N 46°55' W 124°07'0 0.0
2018-Feb-10 17:31N 46°55' W 124°07'0 0.0
2018-Feb-10 17:00N 46°55' W 124°07'0 0.0
2018-Feb-10 16:31N 46°55' W 124°07'0 0.0
2018-Feb-10 16:00N 46°55' W 124°07'0 0.0
2018-Feb-10 15:31N 46°55' W 124°07'0 0.0
2018-Feb-10 15:01N 46°55' W 124°07'0 0.0
2018-Feb-10 14:31N 46°55' W 124°07'0 0.0
2018-Feb-10 14:00N 46°55' W 124°07'0 0.0
2018-Feb-10 13:31N 46°55' W 124°07'0 0.0
2018-Feb-10 13:00N 46°55' W 124°07'0 0.0
2018-Feb-10 12:30N 46°55' W 124°07'0 0.0
2018-Feb-10 12:00N 46°55' W 124°07'0 0.0
2018-Feb-10 11:31N 46°55' W 124°07'0 0.0
2018-Feb-10 11:00N 46°55' W 124°07'0 0.0
2018-Feb-10 10:31N 46°55' W 124°07'0 0.0
2018-Feb-10 10:01N 46°55' W 124°07'0 0.0
2018-Feb-10 09:30N 46°55' W 124°07'0 0.0
2018-Feb-10 09:01N 46°55' W 124°07'0 0.0
2018-Feb-10 08:31N 46°55' W 124°07'0 0.0
2018-Feb-10 08:01N 46°55' W 124°07'1 1.7
2018-Feb-10 07:30N 46°55' W 124°08'4 6.8
2018-Feb-10 06:51N 46°55' W 124°14'5 8.1
2018-Feb-10 06:13N 46°59' W 124°19'  
Track history (hours):
 
Tides and Currents Weather Stations Pressure Air Temp Water Temp Dewpoint Dewpoint Depression Visibility Wind Speed Wind Dir Waves Ship Positions

Pacific Dove

Owner: Pacific Dove Seafoods Inc., Grayland, WA. More information available from US FCC via Universal Licensing System and Coast Guard Vessel Documentation Center.

Last reported at 2018-Feb-18 06:25 UTC. Time now 2018-Feb-18 06:57 UTC.
Position N 46°55' W 124°07'.

Length 24 m.

Type: Fishing. MMSI: 367171980.

Date/timePositionNaut miles runAvg speedWind from/ knotsBaromVisibWave heightAir tempDewpointWater temp
2018-Feb-18 06:25N 46°55' W 124°07'0 0.1
2018-Feb-18 05:51N 46°55' W 124°07'0 0.0
2018-Feb-18 02:14N 46°55' W 124°07'0 0.0
2018-Feb-18 02:00N 46°55' W 124°07'0 0.0
2018-Feb-18 00:59N 46°55' W 124°07'0 0.0
2018-Feb-18 00:11N 46°55' W 124°07'0 0.0
2018-Feb-17 23:48N 46°55' W 124°07'0 0.0
2018-Feb-17 22:50N 46°55' W 124°07'0 0.1
2018-Feb-17 22:11N 46°55' W 124°07'0 0.0
2018-Feb-17 21:47N 46°55' W 124°07'0 0.0
2018-Feb-17 21:25N 46°55' W 124°07'0 0.0
2018-Feb-17 17:11N 46°55' W 124°07'0 0.0
2018-Feb-17 16:29N 46°55' W 124°07'0 0.0
2018-Feb-17 07:38N 46°55' W 124°07'1 3.8
2018-Feb-17 07:29N 46°55' W 124°07'4 9.1
2018-Feb-17 07:00N 46°55' W 124°13'3 6.2
2018-Feb-17 06:31N 46°57' W 124°17'3 6.8
2018-Feb-17 06:01N 46°60' W 124°19'3 0.1
2018-Feb-15 20:11N 46°59' W 124°15'1 6.5
2018-Feb-15 20:00N 46°58' W 124°14'3 6.5
2018-Feb-15 19:30N 46°55' W 124°12'4 0.1
2018-Feb-14 08:17N 46°55' W 124°07'1 4.5
2018-Feb-14 08:00N 46°55' W 124°08'4 7.9
2018-Feb-14 07:30N 46°55' W 124°14'4 7.3
2018-Feb-14 07:00N 46°57' W 124°18'  
2018-Feb-11 21:15N 47°00' W 124°18'2 8.1
2018-Feb-11 21:00N 46°59' W 124°16'6 8.3
2018-Feb-11 20:19N 46°55' W 124°10'2 0.1
2018-Feb-10 17:55N 46°55' W 124°07'0 0.0
2018-Feb-10 17:31N 46°55' W 124°07'0 0.0
2018-Feb-10 17:00N 46°55' W 124°07'0 0.0
2018-Feb-10 16:31N 46°55' W 124°07'0 0.0
2018-Feb-10 16:00N 46°55' W 124°07'0 0.0
2018-Feb-10 15:31N 46°55' W 124°07'0 0.0
2018-Feb-10 15:01N 46°55' W 124°07'0 0.0
2018-Feb-10 14:31N 46°55' W 124°07'0 0.0
2018-Feb-10 14:00N 46°55' W 124°07'0 0.0
2018-Feb-10 13:31N 46°55' W 124°07'0 0.0
2018-Feb-10 13:00N 46°55' W 124°07'0 0.0
2018-Feb-10 12:30N 46°55' W 124°07'0 0.0
2018-Feb-10 12:00N 46°55' W 124°07'0 0.0
2018-Feb-10 11:31N 46°55' W 124°07'0 0.0
2018-Feb-10 11:00N 46°55' W 124°07'0 0.0
2018-Feb-10 10:31N 46°55' W 124°07'0 0.0
2018-Feb-10 10:01N 46°55' W 124°07'0 0.0
2018-Feb-10 09:30N 46°55' W 124°07'0 0.0
2018-Feb-10 09:01N 46°55' W 124°07'0 0.0
2018-Feb-10 08:31N 46°55' W 124°07'0 0.0
2018-Feb-10 08:01N 46°55' W 124°07'1 1.7
2018-Feb-10 07:30N 46°55' W 124°08'4 6.8
2018-Feb-10 06:51N 46°55' W 124°14'5 8.1
2018-Feb-10 06:13N 46°59' W 124°19'  

Dump ship's entire track history